createdAt,value
2023-05-11T00:00:49.398Z,146112.78
2023-05-11T00:03:16.634Z,146105.50
2023-05-11T00:05:47.879Z,146098.19
2023-05-11T00:08:17.134Z,145983.81
2023-05-11T00:10:48.538Z,146073.81
2023-05-11T00:13:15.869Z,146071.38
2023-05-11T00:15:43.175Z,146004.50
2023-05-11T00:18:10.408Z,146081.19
2023-05-11T00:20:37.397Z,146045.84
2023-05-11T00:23:04.552Z,146061.63
2023-05-11T00:25:31.662Z,146043.41
2023-05-11T00:27:58.707Z,146015.41
2023-05-11T00:30:25.740Z,146038.53
2023-05-11T00:32:52.793Z,145993.53
2023-05-11T00:35:19.939Z,146000.84
2023-05-11T00:37:46.957Z,146006.91
2023-05-11T00:40:14.011Z,145993.53
2023-05-11T00:42:41.051Z,145999.63
2023-05-11T00:45:08.442Z,145994.78
2023-05-11T00:47:35.483Z,145986.25
2023-05-11T00:50:02.616Z,145978.94
2023-05-11T00:52:30.381Z,145986.25
2023-05-11T00:54:57.409Z,146017.88
2023-05-11T00:57:25.028Z,146006.91
2023-05-11T00:59:52.154Z,145997.19
2023-05-11T01:02:19.478Z,146000.84
2023-05-11T01:04:46.589Z,145980.13
2023-05-11T01:07:19.356Z,146013.03
2023-05-11T01:10:00.817Z,146022.75
2023-05-11T01:12:40.516Z,146025.16
2023-05-11T01:15:22.047Z,146025.16
2023-05-11T01:17:58.076Z,145982.59
2023-05-11T01:20:29.964Z,146027.59
2023-05-11T01:23:32.035Z,146020.28
2023-05-11T01:26:11.491Z,146031.25
2023-05-11T01:29:29.958Z,146017.88
2023-05-11T01:31:59.912Z,146004.50
2023-05-11T01:34:31.897Z,146003.25
2023-05-11T01:37:04.998Z,146006.91
2023-05-11T01:39:37.348Z,146020.28
2023-05-11T01:42:10.965Z,146005.69
2023-05-11T01:44:42.300Z,146043.41
2023-05-11T01:47:11.937Z,146042.19
2023-05-11T01:49:42.305Z,146060.44
2023-05-11T01:52:11.082Z,146044.66
2023-05-11T01:54:40.137Z,146047.06
2023-05-11T01:57:08.501Z,145976.53
2023-05-11T01:59:40.181Z,146022.75
2023-05-11T02:02:09.263Z,146056.78
2023-05-11T02:04:38.615Z,146034.88
2023-05-11T02:07:08.888Z,146044.66
2023-05-11T02:09:37.784Z,145961.91
2023-05-11T02:12:07.137Z,146041.00
2023-05-11T02:14:37.742Z,146023.94
2023-05-11T02:17:07.309Z,146002.03
2023-05-11T02:19:36.467Z,146019.09
2023-05-11T02:22:05.232Z,145997.19
2023-05-11T02:24:33.411Z,145961.91
2023-05-11T02:27:00.620Z,146005.69
2023-05-11T02:29:27.960Z,145968.00
2023-05-11T02:32:08.004Z,145988.66
2023-05-11T02:34:44.059Z,145986.25
2023-05-11T02:37:15.328Z,146005.69
2023-05-11T02:39:46.647Z,146019.09
2023-05-11T02:42:20.680Z,146006.91
2023-05-11T02:44:57.939Z,145991.13
2023-05-11T02:47:32.280Z,145957.03
2023-05-11T02:50:04.077Z,146003.25
2023-05-11T02:52:35.956Z,146005.69
2023-05-11T02:55:04.861Z,145986.25
2023-05-11T02:57:31.992Z,145982.59
2023-05-11T03:00:04.246Z,146005.69
2023-05-11T03:02:31.649Z,145994.78
2023-05-11T03:04:58.923Z,145961.91
2023-05-11T03:07:26.135Z,145976.53
2023-05-11T03:09:53.316Z,145985.00
2023-05-11T03:12:21.334Z,146002.03
2023-05-11T03:14:49.424Z,146003.25
2023-05-11T03:17:19.171Z,145969.22
2023-05-11T03:19:47.130Z,145981.38
2023-05-11T03:22:15.955Z,145972.88
2023-05-11T03:24:43.347Z,145981.38
2023-05-11T03:27:11.615Z,145971.66
2023-05-11T03:29:43.625Z,145998.38
2023-05-11T03:32:12.552Z,145991.13
2023-05-11T03:34:40.687Z,146004.50
2023-05-11T03:37:13.319Z,145999.63
2023-05-11T03:39:43.857Z,145949.78
2023-05-11T03:42:13.693Z,145898.69
2023-05-11T03:44:43.902Z,145995.97
2023-05-11T03:47:12.387Z,145923.00
2023-05-11T03:49:40.985Z,145901.09
2023-05-11T03:52:08.629Z,145961.91
2023-05-11T03:54:36.240Z,145957.03
2023-05-11T03:57:03.292Z,145961.91
2023-05-11T03:59:30.285Z,145968.00
2023-05-11T04:01:58.724Z,145940.03
2023-05-11T04:04:32.729Z,145954.63
2023-05-11T04:07:00.564Z,145971.66
2023-05-11T04:09:27.590Z,145968.00
2023-05-11T04:11:54.574Z,145903.56
2023-05-11T04:14:21.808Z,145981.38
2023-05-11T04:16:48.856Z,145957.03
2023-05-11T04:19:16.601Z,145971.66
2023-05-11T04:21:43.630Z,145950.97
2023-05-11T04:24:10.605Z,145974.06
2023-05-11T04:26:37.619Z,145991.13
2023-05-11T04:29:04.984Z,145978.94
2023-05-11T04:31:32.198Z,145974.06
2023-05-11T04:34:00.264Z,146008.16
2023-05-11T04:36:27.286Z,146014.22
2023-05-11T04:38:54.603Z,146003.25
2023-05-11T04:41:22.308Z,145999.63
2023-05-11T04:43:51.142Z,146000.84
2023-05-11T04:46:18.317Z,146013.03
2023-05-11T04:48:45.444Z,146015.41
2023-05-11T04:51:12.565Z,146009.34
2023-05-11T04:53:42.847Z,146034.88
2023-05-11T04:56:10.696Z,146021.50
2023-05-11T04:58:37.687Z,146037.31
2023-05-11T05:01:04.763Z,146031.25
2023-05-11T05:03:31.846Z,146054.38
2023-05-11T05:05:58.938Z,146008.16
2023-05-11T05:08:26.024Z,146051.91
2023-05-11T05:10:53.072Z,146051.91
2023-05-11T05:13:20.394Z,146093.31
2023-05-11T05:15:47.504Z,146083.59
2023-05-11T05:18:14.620Z,146117.69
2023-05-11T05:20:44.216Z,146076.28
2023-05-11T05:23:11.264Z,146076.28
2023-05-11T05:25:38.255Z,146109.16
2023-05-11T05:28:06.536Z,146083.59
2023-05-11T05:30:33.634Z,146106.72
2023-05-11T05:33:00.829Z,146095.78
2023-05-11T05:35:27.971Z,146049.50
2023-05-11T05:37:55.751Z,146149.28
2023-05-11T05:40:22.813Z,146140.81
2023-05-11T05:42:53.431Z,146131.03
2023-05-11T05:45:22.514Z,146154.19
2023-05-11T05:47:51.669Z,146154.19
2023-05-11T05:50:19.639Z,146149.28
2023-05-11T05:52:47.125Z,146156.59
2023-05-11T05:55:14.627Z,146176.06
2023-05-11T05:57:43.641Z,146183.38
2023-05-11T06:00:11.275Z,146149.28
2023-05-11T06:02:41.438Z,146178.50
2023-05-11T06:05:12.981Z,146180.91
2023-05-11T06:07:40.014Z,146216.22
2023-05-11T06:10:07.236Z,146275.84
2023-05-11T06:12:34.492Z,146283.19
2023-05-11T06:15:02.250Z,146247.88
2023-05-11T06:17:31.071Z,146312.38
2023-05-11T06:19:58.244Z,146319.69
2023-05-11T06:22:28.549Z,146311.19
2023-05-11T06:24:55.754Z,146361.09
2023-05-11T06:27:22.785Z,146368.38
2023-05-11T06:29:53.401Z,146385.44
2023-05-11T06:32:20.629Z,146374.50
2023-05-11T06:34:47.950Z,146365.97
2023-05-11T06:37:20.389Z,146320.91
2023-05-11T06:39:49.961Z,146312.38
2023-05-11T06:42:17.380Z,146262.47
2023-05-11T06:44:44.405Z,146307.50
2023-05-11T06:47:11.574Z,146280.72
2023-05-11T06:49:38.572Z,146286.84
2023-05-11T06:52:06.348Z,146347.69
2023-05-11T06:54:33.942Z,146286.84
2023-05-11T06:57:03.543Z,146288.03
2023-05-11T06:59:30.838Z,146271.00
2023-05-11T07:01:58.023Z,146294.13
2023-05-11T07:04:25.269Z,146292.91
2023-05-11T07:06:52.977Z,146300.25
2023-05-11T07:09:20.454Z,146312.38
2023-05-11T07:11:47.539Z,146263.72
2023-05-11T07:14:14.600Z,146280.72
2023-05-11T07:16:42.127Z,146217.44
2023-05-11T07:19:09.741Z,146322.13
2023-05-11T07:21:36.951Z,146320.91
2023-05-11T07:24:04.259Z,146329.44
2023-05-11T07:26:31.386Z,146368.38
2023-05-11T07:28:58.394Z,146375.69
2023-05-11T07:31:25.495Z,146393.97
2023-05-11T07:33:53.202Z,146390.31
2023-05-11T07:36:20.184Z,146407.34
2023-05-11T07:38:47.214Z,146395.16
2023-05-11T07:41:14.247Z,146409.88
2023-05-11T07:43:41.646Z,146441.47
2023-05-11T07:46:08.784Z,146479.28
2023-05-11T07:48:35.893Z,146562.09
2023-05-11T07:51:03.111Z,146543.81
2023-05-11T07:53:30.235Z,146568.16
2023-05-11T07:55:59.511Z,146571.84
2023-05-11T07:58:26.744Z,146541.38
2023-05-11T08:00:53.932Z,146626.66
2023-05-11T08:03:21.475Z,146682.69
2023-05-11T08:05:49.064Z,146649.81
2023-05-11T08:08:16.349Z,146658.34
2023-05-11T08:10:43.376Z,146665.66
2023-05-11T08:13:10.852Z,146651.00
2023-05-11T08:15:37.942Z,146731.50
2023-05-11T08:18:06.271Z,146682.69
2023-05-11T08:20:33.576Z,146635.19
2023-05-11T08:23:00.625Z,146733.94
2023-05-11T08:25:27.713Z,146760.75
2023-05-11T08:27:54.723Z,146724.19
2023-05-11T08:30:21.815Z,146730.31
2023-05-11T08:32:57.922Z,146748.59
2023-05-11T08:35:25.933Z,146758.34
2023-05-11T08:37:52.928Z,146900.97
2023-05-11T08:40:21.491Z,146870.47
2023-05-11T08:42:51.935Z,146938.75
2023-05-11T08:45:20.883Z,147016.84
2023-05-11T08:47:48.640Z,147055.91
2023-05-11T08:50:15.916Z,147065.66
2023-05-11T08:52:42.909Z,147021.72
2023-05-11T08:55:10.582Z,146988.81
2023-05-11T08:57:38.535Z,146890.00
2023-05-11T09:00:07.648Z,146916.78
2023-05-11T09:02:35.730Z,146897.28
2023-05-11T09:05:04.435Z,146972.91
2023-05-11T09:07:34.952Z,146940.00
2023-05-11T09:10:01.940Z,146908.28
2023-05-11T09:12:29.749Z,146964.38
2023-05-11T09:15:01.850Z,146931.47
2023-05-11T09:17:29.641Z,146977.78
2023-05-11T09:19:59.379Z,147091.28
2023-05-11T09:22:29.417Z,147124.22
2023-05-11T09:24:57.990Z,147033.94
2023-05-11T09:27:25.291Z,146976.59
2023-05-11T09:29:54.444Z,147015.66
2023-05-11T09:32:21.681Z,147069.31
2023-05-11T09:34:48.924Z,147057.13
2023-05-11T09:37:18.041Z,146982.69
2023-05-11T09:40:14.193Z,146927.78
2023-05-11T09:42:32.353Z,146977.78
2023-05-11T09:44:59.421Z,147026.59
2023-05-11T09:47:27.451Z,147038.81
2023-05-11T09:49:54.624Z,147126.66
2023-05-11T09:52:21.688Z,147192.56
2023-05-11T09:54:51.674Z,147229.19
2023-05-11T09:57:26.852Z,147221.84
2023-05-11T09:59:55.590Z,147170.59
2023-05-11T10:02:28.340Z,147141.28
2023-05-11T10:04:57.886Z,147136.41
2023-05-11T10:07:26.807Z,147065.66
2023-05-11T10:09:55.367Z,147114.47
2023-05-11T10:12:25.524Z,147133.97
2023-05-11T10:15:01.904Z,147096.16
2023-05-11T10:17:30.671Z,147029.06
2023-05-11T10:19:58.576Z,147090.03
2023-05-11T10:22:27.440Z,147024.19
2023-05-11T10:24:57.558Z,146975.34
2023-05-11T10:27:25.343Z,147073.00
2023-05-11T10:29:52.426Z,147037.59
2023-05-11T10:32:20.595Z,147087.63
2023-05-11T10:34:48.474Z,147129.09
2023-05-11T10:37:16.608Z,147112.00
2023-05-11T10:39:48.408Z,147201.13
2023-05-11T10:42:17.248Z,147325.66
2023-05-11T10:45:05.777Z,147397.66
2023-05-11T10:47:55.107Z,147300.00
2023-05-11T10:50:25.228Z,147380.59
2023-05-11T10:53:06.819Z,147312.22
2023-05-11T10:55:55.380Z,147383.00
2023-05-11T10:58:33.528Z,147232.81
2023-05-11T11:01:24.070Z,147204.72
2023-05-11T11:04:05.175Z,147229.19
2023-05-11T11:06:33.775Z,147276.81
2023-05-11T11:09:04.309Z,147302.47
2023-05-11T11:11:47.906Z,147348.84
2023-05-11T11:14:16.380Z,147258.50
2023-05-11T11:17:15.196Z,147238.94
2023-05-11T11:19:42.698Z,147220.63
2023-05-11T11:22:42.714Z,147271.94
2023-05-11T11:25:13.615Z,147304.88
2023-05-11T11:27:40.569Z,147289.03
2023-05-11T11:30:24.446Z,147303.66
2023-05-11T11:32:53.769Z,147256.06
2023-05-11T11:35:39.613Z,147240.16
2023-05-11T11:38:08.409Z,147180.34
2023-05-11T11:40:51.261Z,147177.88
2023-05-11T11:43:21.959Z,147163.25
2023-05-11T11:45:59.544Z,147157.16
2023-05-11T11:48:37.471Z,147249.94
2023-05-11T11:51:08.851Z,147289.03
2023-05-11T11:53:35.854Z,147243.81
2023-05-11T11:56:07.841Z,147160.84
2023-05-11T11:58:46.746Z,147265.84
2023-05-11T12:01:16.318Z,147292.69
2023-05-11T12:03:49.430Z,147292.69
2023-05-11T12:06:25.022Z,147212.06
2023-05-11T12:08:53.969Z,147251.16
2023-05-11T12:11:23.090Z,147234.06
2023-05-11T12:13:50.760Z,147314.63
2023-05-11T12:16:20.681Z,147307.34
2023-05-11T12:18:57.741Z,147256.06
2023-05-11T12:21:29.029Z,147212.06
2023-05-11T12:24:01.669Z,147201.13
2023-05-11T12:26:30.161Z,147155.97
2023-05-11T12:29:14.394Z,147109.59
2023-05-11T12:31:43.936Z,147051.03
2023-05-11T12:34:22.737Z,147041.28
2023-05-11T12:36:52.084Z,147082.75
2023-05-11T12:39:24.271Z,146943.63
2023-05-11T12:41:53.560Z,146938.75
2023-05-11T12:44:22.838Z,146888.75
2023-05-11T12:46:50.691Z,146815.59
2023-05-11T12:49:26.437Z,146819.25
2023-05-11T12:52:02.056Z,146744.91
2023-05-11T12:54:34.137Z,146688.81
2023-05-11T12:57:02.825Z,146631.53
2023-05-11T12:59:30.968Z,146629.13
2023-05-11T13:02:09.720Z,146570.63
2023-05-11T13:04:39.851Z,146619.34
2023-05-11T13:07:07.047Z,146551.09
2023-05-11T13:09:34.554Z,146531.63
2023-05-11T13:12:17.838Z,146635.19
2023-05-11T13:14:50.614Z,146731.50
2023-05-11T13:17:37.411Z,146709.50
2023-05-11T13:20:27.734Z,146720.56
2023-05-11T13:23:11.418Z,146697.31
2023-05-11T13:25:58.717Z,146713.22
2023-05-11T13:28:26.396Z,146692.44
2023-05-11T13:31:02.000Z,146737.59
2023-05-11T13:33:29.303Z,146705.84
2023-05-11T13:35:56.398Z,146743.72
2023-05-11T13:38:23.426Z,146722.97
2023-05-11T13:40:50.412Z,146755.88
2023-05-11T13:43:17.942Z,146782.69
2023-05-11T13:45:45.011Z,146716.91
2023-05-11T13:48:12.237Z,146777.81
2023-05-11T13:50:39.661Z,146775.41
2023-05-11T13:53:06.747Z,146821.72
2023-05-11T13:55:37.959Z,146772.94
2023-05-11T13:58:06.115Z,146844.88
2023-05-11T14:00:34.862Z,146842.44
2023-05-11T14:03:02.073Z,146810.72
2023-05-11T14:05:29.492Z,146811.97
2023-05-11T14:07:56.541Z,146853.44
2023-05-11T14:10:24.955Z,146790.03
2023-05-11T14:12:52.033Z,146819.25
2023-05-11T14:15:19.481Z,146880.22
2023-05-11T14:17:46.832Z,146814.41
2023-05-11T14:20:14.219Z,146855.84
2023-05-11T14:22:41.545Z,146872.91
2023-05-11T14:25:09.069Z,146799.78
2023-05-11T14:27:36.453Z,146816.84
2023-05-11T14:30:05.709Z,146870.47
2023-05-11T14:32:32.790Z,146794.91
2023-05-11T14:35:03.133Z,146790.03
2023-05-11T14:37:30.161Z,146733.94
2023-05-11T14:39:57.230Z,146807.06
2023-05-11T14:42:24.240Z,146666.88
2023-05-11T14:44:51.246Z,146794.91
2023-05-11T14:47:18.292Z,146716.91
2023-05-11T14:49:45.376Z,146731.50
2023-05-11T14:52:12.548Z,146736.38
2023-05-11T14:54:39.581Z,146704.66
2023-05-11T14:57:06.677Z,146699.78
2023-05-11T14:59:33.916Z,146705.84
2023-05-11T15:02:01.014Z,146618.13
2023-05-11T15:04:28.201Z,146683.94
2023-05-11T15:06:56.052Z,146599.84
2023-05-11T15:09:24.034Z,146679.03
2023-05-11T15:11:51.145Z,146685.16
2023-05-11T15:14:18.223Z,146581.56
2023-05-11T15:16:45.976Z,146690.03
2023-05-11T15:19:13.574Z,146675.41
2023-05-11T15:21:40.692Z,146613.25
2023-05-11T15:24:10.714Z,146690.03
2023-05-11T15:26:38.476Z,146669.28
2023-05-11T15:29:05.599Z,146637.59
2023-05-11T15:31:32.828Z,146634.00
2023-05-11T15:34:00.161Z,146577.91
2023-05-11T15:36:29.655Z,146649.81
2023-05-11T15:38:57.303Z,146672.97
2023-05-11T15:41:24.411Z,146685.16
2023-05-11T15:43:54.283Z,146690.03
2023-05-11T15:46:21.737Z,146674.16
2023-05-11T15:48:48.928Z,146655.88
2023-05-11T15:51:16.045Z,146640.06
2023-05-11T15:53:43.101Z,146602.31
2023-05-11T15:56:10.237Z,146582.78
2023-05-11T15:58:37.341Z,146614.47
2023-05-11T16:01:04.372Z,146586.44
2023-05-11T16:03:32.176Z,146560.88
2023-05-11T16:05:59.608Z,146570.63
2023-05-11T16:08:26.687Z,146543.81
2023-05-11T16:10:53.766Z,146569.38
2023-05-11T16:13:20.886Z,146580.38
2023-05-11T16:15:47.951Z,146597.44
2023-05-11T16:18:16.562Z,146558.44
2023-05-11T16:20:43.927Z,146518.22
2023-05-11T16:23:10.939Z,146603.50
2023-05-11T16:25:37.975Z,146590.09
2023-05-11T16:28:05.170Z,146541.38
2023-05-11T16:30:32.671Z,146599.84
2023-05-11T16:32:59.868Z,146607.19
2023-05-11T16:35:27.216Z,146586.44
2023-05-11T16:37:56.501Z,146643.72
2023-05-11T16:40:23.610Z,146677.81
2023-05-11T16:42:50.771Z,146675.41
2023-05-11T16:45:17.931Z,146658.34
2023-05-11T16:47:46.049Z,146594.97
2023-05-11T16:50:17.920Z,146651.00
2023-05-11T16:52:45.470Z,146624.19
2023-05-11T16:55:13.096Z,146579.16
2023-05-11T16:57:40.234Z,146638.84
2023-05-11T17:00:08.690Z,146607.19
2023-05-11T17:02:35.835Z,146604.72
2023-05-11T17:05:02.972Z,146626.66
2023-05-11T17:07:30.086Z,146638.84
2023-05-11T17:09:57.916Z,146592.56
2023-05-11T17:12:24.991Z,146560.88
2023-05-11T17:14:51.994Z,146575.50
2023-05-11T17:17:19.110Z,146575.50
2023-05-11T17:19:46.203Z,146469.53
2023-05-11T17:22:13.364Z,146498.75
2023-05-11T17:24:40.969Z,146553.56
2023-05-11T17:27:08.193Z,146513.34
2023-05-11T17:29:35.327Z,146524.34
2023-05-11T17:32:03.322Z,146529.22
2023-05-11T17:34:31.176Z,146531.63
2023-05-11T17:36:58.472Z,146524.34
2023-05-11T17:39:25.592Z,146458.53
2023-05-11T17:41:53.137Z,146521.88
2023-05-11T17:44:21.163Z,146536.50
2023-05-11T17:46:48.149Z,146473.16
2023-05-11T17:49:15.213Z,146499.94
2023-05-11T17:51:42.559Z,146484.13
2023-05-11T17:54:09.558Z,146470.75
2023-05-11T17:56:36.550Z,146499.94
2023-05-11T17:59:04.026Z,146499.94
2023-05-11T18:01:32.314Z,146429.34
2023-05-11T18:04:00.428Z,146461.00
2023-05-11T18:06:28.229Z,146452.47
2023-05-11T18:08:55.541Z,146361.09
2023-05-11T18:11:22.532Z,146456.13
2023-05-11T18:13:49.727Z,146443.94
2023-05-11T18:16:17.156Z,146369.63
2023-05-11T18:18:44.897Z,146443.94
2023-05-11T18:21:12.031Z,146409.88
2023-05-11T18:23:39.087Z,146441.47
2023-05-11T18:26:07.002Z,146451.25
2023-05-11T18:28:34.063Z,146440.28
2023-05-11T18:31:01.910Z,146425.66
2023-05-11T18:33:29.175Z,146393.97
2023-05-11T18:35:56.406Z,146403.69
2023-05-11T18:38:23.409Z,146424.47
2023-05-11T18:40:51.503Z,146404.91
2023-05-11T18:43:18.552Z,146409.88
2023-05-11T18:45:46.336Z,146385.44
2023-05-11T18:48:13.419Z,146408.56
2023-05-11T18:50:40.612Z,146397.63
2023-05-11T18:53:08.415Z,146391.56
2023-05-11T18:55:45.034Z,146390.31
2023-05-11T18:58:20.494Z,146395.16
2023-05-11T19:00:48.689Z,146395.16
2023-05-11T19:03:17.861Z,146395.16
2023-05-11T19:05:45.342Z,146363.50
2023-05-11T19:08:12.553Z,146313.59
2023-05-11T19:10:40.482Z,146387.88
2023-05-11T19:13:07.603Z,146379.34
2023-05-11T19:15:34.750Z,146370.84
2023-05-11T19:18:01.910Z,146303.84
2023-05-11T19:20:28.992Z,146346.50
2023-05-11T19:22:56.804Z,146339.16
2023-05-11T19:25:23.933Z,146339.16
2023-05-11T19:27:50.992Z,146365.97
2023-05-11T19:30:18.413Z,146370.84
2023-05-11T19:32:45.833Z,146361.09
2023-05-11T19:35:14.501Z,146357.44
2023-05-11T19:37:42.005Z,146363.50
2023-05-11T19:40:43.092Z,146316.03
2023-05-11T19:42:56.324Z,146317.25
2023-05-11T19:45:23.379Z,146336.75
2023-05-11T19:47:50.876Z,146344.03
2023-05-11T19:50:19.762Z,146351.34
2023-05-11T19:52:48.304Z,146319.69
2023-05-11T19:55:15.500Z,146324.56
2023-05-11T19:57:42.519Z,146335.50
2023-05-11T20:00:10.060Z,146317.25
2023-05-11T20:02:37.180Z,146341.63
2023-05-11T20:05:04.564Z,146339.16
2023-05-11T20:07:32.071Z,146212.56
2023-05-11T20:09:59.122Z,146340.38
2023-05-11T20:12:26.225Z,146307.50
2023-05-11T20:14:53.386Z,146319.69
2023-05-11T20:17:21.430Z,146336.75
2023-05-11T20:19:48.484Z,146331.84
2023-05-11T20:22:15.528Z,146295.31
2023-05-11T20:24:42.833Z,146322.13
2023-05-11T20:27:10.962Z,146294.13
2023-05-11T20:29:40.191Z,146288.03
2023-05-11T20:32:07.650Z,146294.13
2023-05-11T20:34:35.544Z,146241.81
2023-05-11T20:37:02.644Z,146251.53
2023-05-11T20:39:29.769Z,146300.25
2023-05-11T20:41:59.158Z,146268.59
2023-05-11T20:44:26.611Z,146283.19
2023-05-11T20:46:53.629Z,146239.34
2023-05-11T20:49:31.216Z,146251.53
2023-05-11T20:52:05.136Z,146285.59
2023-05-11T20:54:34.762Z,146274.66
2023-05-11T20:57:02.808Z,146271.00
2023-05-11T21:02:02.585Z,146294.13
2023-05-11T21:04:31.073Z,146274.66
2023-05-11T21:06:58.158Z,146253.94
2023-05-11T21:09:25.514Z,146266.13
2023-05-11T21:11:52.774Z,146215.03
2023-05-11T21:14:20.117Z,146278.31
2023-05-11T21:16:47.797Z,146280.72
2023-05-11T21:19:18.453Z,146255.19
2023-05-11T21:21:48.431Z,146271.00
2023-05-11T21:24:16.306Z,146273.44
2023-05-11T21:26:43.770Z,146268.59
2023-05-11T21:29:12.982Z,146246.66
2023-05-11T21:31:39.988Z,146258.81
2023-05-11T21:34:06.996Z,146266.13
2023-05-11T21:36:34.039Z,146256.41
2023-05-11T21:39:01.130Z,146256.41
2023-05-11T21:41:28.152Z,146251.53
2023-05-11T21:43:55.211Z,146251.53
2023-05-11T21:46:22.267Z,146262.47
2023-05-11T21:48:49.350Z,146249.06
2023-05-11T21:51:16.446Z,146256.41
2023-05-11T21:53:43.451Z,146263.72
2023-05-11T21:56:10.434Z,146256.41
2023-05-11T21:58:37.728Z,146251.53
2023-05-11T22:01:04.854Z,146244.22
2023-05-11T22:03:32.140Z,146221.09
2023-05-11T22:05:59.239Z,146266.13
2023-05-11T22:08:26.418Z,146284.38
2023-05-11T22:10:53.525Z,146268.59
2023-05-11T22:13:20.593Z,146249.06
2023-05-11T22:15:47.651Z,146266.13
2023-05-11T22:18:14.725Z,146251.53
2023-05-11T22:20:41.758Z,146244.22
2023-05-11T22:23:08.732Z,146241.81
2023-05-11T22:25:35.860Z,146253.94
2023-05-11T22:28:02.991Z,146239.34
2023-05-11T22:30:30.006Z,146253.94
2023-05-11T22:32:57.139Z,146252.75
2023-05-11T22:35:24.501Z,146197.97
2023-05-11T22:37:51.511Z,146244.22
2023-05-11T22:40:18.844Z,146210.16
2023-05-11T22:42:46.071Z,146222.28
2023-05-11T22:45:13.095Z,146215.03
2023-05-11T22:47:40.113Z,146232.06
2023-05-11T22:50:11.578Z,146229.63
2023-05-11T22:52:38.711Z,146232.06
2023-05-11T22:55:06.401Z,146230.81
2023-05-11T22:57:33.665Z,146223.53
2023-05-11T23:00:00.679Z,146205.28
2023-05-11T23:02:29.495Z,146229.63
2023-05-11T23:04:56.621Z,146216.22
2023-05-11T23:07:23.682Z,146223.53
2023-05-11T23:09:52.812Z,146180.91
2023-05-11T23:12:19.995Z,146151.72
2023-05-11T23:14:47.174Z,146210.16
2023-05-11T23:17:14.276Z,146222.28
2023-05-11T23:19:41.565Z,146195.56
2023-05-11T23:22:08.743Z,146200.44
2023-05-11T23:24:36.005Z,146210.16
2023-05-11T23:27:03.412Z,146178.50
2023-05-11T23:29:30.573Z,146215.03
2023-05-11T23:31:57.647Z,146213.81
2023-05-11T23:34:24.731Z,146190.69
2023-05-11T23:36:51.889Z,146223.53
2023-05-11T23:39:19.057Z,146169.97
2023-05-11T23:41:46.136Z,146185.78
2023-05-11T23:44:13.135Z,146199.19
2023-05-11T23:46:40.195Z,146200.44
2023-05-11T23:49:07.608Z,146205.28
2023-05-11T23:51:34.683Z,146171.19
2023-05-11T23:54:02.011Z,146195.56
2023-05-11T23:56:29.049Z,146207.69
2023-05-11T23:58:56.042Z,146212.56
